createdAt,value
2023-05-23T00:02:19.997Z,8.35
2023-05-23T00:04:59.647Z,7.97
2023-05-23T00:07:29.997Z,8.73
2023-05-23T00:10:08.870Z,8.68
2023-05-23T00:12:39.661Z,8.88
2023-05-23T00:15:11.517Z,9.13
2023-05-23T00:17:43.927Z,9.07
2023-05-23T00:20:16.469Z,8.85
2023-05-23T00:22:48.528Z,9.70
2023-05-23T00:25:24.013Z,8.98
2023-05-23T00:27:52.867Z,9.55
2023-05-23T00:30:23.650Z,8.57
2023-05-23T00:32:56.726Z,8.95
2023-05-23T00:35:30.224Z,9.85
2023-05-23T00:38:03.178Z,10.43
2023-05-23T00:40:39.094Z,11.13
2023-05-23T00:43:10.856Z,10.57
2023-05-23T00:45:40.647Z,12.48
2023-05-23T00:48:09.713Z,12.57
2023-05-23T00:50:58.211Z,11.93
2023-05-23T00:53:27.044Z,10.90
2023-05-23T00:55:56.265Z,11.27
2023-05-23T00:58:27.809Z,10.82
2023-05-23T01:00:56.664Z,11.45
2023-05-23T01:03:30.482Z,11.85
2023-05-23T01:06:03.602Z,11.57
2023-05-23T01:08:32.708Z,10.88
2023-05-23T01:11:05.750Z,11.35
2023-05-23T01:13:41.412Z,11.27
2023-05-23T01:16:21.196Z,11.65
2023-05-23T01:18:58.069Z,13.05
2023-05-23T01:21:33.181Z,13.65
2023-05-23T01:24:21.140Z,13.68
2023-05-23T01:27:06.532Z,14.98
2023-05-23T01:29:41.205Z,15.07
2023-05-23T01:32:14.498Z,16.20
2023-05-23T01:34:44.351Z,17.50
2023-05-23T01:37:14.669Z,18.45
2023-05-23T01:39:45.454Z,20.42
2023-05-23T01:42:16.456Z,20.58
2023-05-23T01:44:47.650Z,20.48
2023-05-23T01:47:19.806Z,20.40
2023-05-23T01:49:51.012Z,22.23
2023-05-23T01:52:29.152Z,22.55
2023-05-23T01:54:59.459Z,23.27
2023-05-23T01:57:31.959Z,25.08
2023-05-23T02:00:03.976Z,24.08
2023-05-23T02:02:37.718Z,24.50
2023-05-23T02:05:07.103Z,25.65
2023-05-23T02:07:36.964Z,25.02
2023-05-23T02:10:10.806Z,24.25
2023-05-23T02:12:46.800Z,23.05
2023-05-23T02:15:17.633Z,23.20
2023-05-23T02:17:46.493Z,23.55
2023-05-23T02:20:15.496Z,23.25
2023-05-23T02:22:44.266Z,22.15
2023-05-23T02:25:12.974Z,21.27
2023-05-23T02:27:54.718Z,20.38
2023-05-23T02:30:25.169Z,18.40
2023-05-23T02:32:57.823Z,16.88
2023-05-23T02:35:38.826Z,15.98
2023-05-23T02:38:13.942Z,14.90
2023-05-23T02:40:54.553Z,14.07
2023-05-23T02:43:27.508Z,13.20
2023-05-23T02:46:02.788Z,12.65
2023-05-23T02:48:32.218Z,11.82
2023-05-23T02:51:01.002Z,11.65
2023-05-23T02:53:29.696Z,11.05
2023-05-23T02:56:00.064Z,11.40
2023-05-23T02:58:36.961Z,10.45
2023-05-23T03:01:11.144Z,10.68
2023-05-23T03:03:42.953Z,11.27
2023-05-23T03:06:14.853Z,10.15
2023-05-23T03:08:47.110Z,11.32
2023-05-23T03:11:19.031Z,11.23
2023-05-23T03:13:49.761Z,11.60
2023-05-23T03:16:26.239Z,12.38
2023-05-23T03:18:56.310Z,11.15
2023-05-23T03:21:27.565Z,10.73
2023-05-23T03:23:57.607Z,10.75
2023-05-23T03:26:28.927Z,11.18
2023-05-23T03:29:00.894Z,11.68
2023-05-23T03:31:35.371Z,11.80
2023-05-23T03:34:05.757Z,10.90
2023-05-23T03:36:36.152Z,11.55
2023-05-23T03:39:05.900Z,11.52
2023-05-23T03:41:36.866Z,11.82
2023-05-23T03:44:14.858Z,11.55
2023-05-23T03:46:45.682Z,11.60
2023-05-23T03:49:17.040Z,11.82
2023-05-23T03:51:45.998Z,11.07
2023-05-23T03:54:24.821Z,11.48
2023-05-23T03:56:55.841Z,10.48
2023-05-23T03:59:29.178Z,10.65
2023-05-23T04:02:02.346Z,10.95
2023-05-23T04:04:31.684Z,10.30
2023-05-23T04:07:02.717Z,9.80
2023-05-23T04:09:31.415Z,9.27
2023-05-23T04:12:12.262Z,8.70
2023-05-23T04:14:47.932Z,8.63
2023-05-23T04:17:18.601Z,8.02
2023-05-23T04:19:47.167Z,8.38
2023-05-23T04:22:17.868Z,8.20
2023-05-23T04:24:46.608Z,8.95
2023-05-23T04:27:16.605Z,8.52
2023-05-23T04:29:50.732Z,8.60
2023-05-23T04:32:23.145Z,8.32
2023-05-23T04:34:54.732Z,7.88
2023-05-23T04:37:26.403Z,7.93
2023-05-23T04:39:57.967Z,7.32
2023-05-23T04:42:29.600Z,7.43
2023-05-23T04:44:59.847Z,6.40
2023-05-23T04:47:36.955Z,7.20
2023-05-23T04:50:06.536Z,6.43
2023-05-23T04:52:37.105Z,6.90
2023-05-23T04:55:13.948Z,6.45
2023-05-23T04:57:45.015Z,6.63
2023-05-23T05:00:22.515Z,6.60
2023-05-23T05:02:55.548Z,6.57
2023-05-23T05:05:28.424Z,6.40
2023-05-23T05:07:58.046Z,6.78
2023-05-23T05:10:27.330Z,6.65
2023-05-23T05:12:58.418Z,7.13
2023-05-23T05:15:29.039Z,7.30
2023-05-23T05:18:19.736Z,6.60
2023-05-23T05:21:01.114Z,7.03
2023-05-23T05:23:31.363Z,6.38
2023-05-23T05:26:00.836Z,6.70
2023-05-23T05:28:31.163Z,6.40
2023-05-23T05:31:04.141Z,6.35
2023-05-23T05:33:47.050Z,6.00
2023-05-23T05:36:24.661Z,6.43
2023-05-23T05:38:57.631Z,5.32
2023-05-23T05:41:28.130Z,6.15
2023-05-23T05:43:58.013Z,6.55
2023-05-23T05:46:28.116Z,6.03
2023-05-23T05:49:00.737Z,6.68
2023-05-23T05:51:30.882Z,5.63
2023-05-23T05:54:01.222Z,5.75
2023-05-23T05:56:43.619Z,7.20
2023-05-23T05:59:18.962Z,6.68
2023-05-23T06:01:51.391Z,6.70
2023-05-23T06:04:27.143Z,6.57
2023-05-23T06:06:58.220Z,6.50
2023-05-23T06:09:36.232Z,6.38
2023-05-23T06:12:10.638Z,6.65
2023-05-23T06:14:43.565Z,7.10
2023-05-23T06:17:17.041Z,6.18
2023-05-23T06:19:49.980Z,7.05
2023-05-23T06:22:26.217Z,5.70
2023-05-23T06:24:55.236Z,5.90
2023-05-23T06:27:26.075Z,5.97
2023-05-23T06:29:59.241Z,6.55
2023-05-23T06:32:29.908Z,6.22
2023-05-23T06:35:02.667Z,6.05
2023-05-23T06:37:34.581Z,6.00
2023-05-23T06:40:09.567Z,6.05
2023-05-23T06:42:40.373Z,5.78
2023-05-23T06:45:12.793Z,6.15
2023-05-23T06:47:45.665Z,5.85
2023-05-23T06:50:20.175Z,6.38
2023-05-23T06:52:48.940Z,6.22
2023-05-23T06:55:19.626Z,6.53
2023-05-23T06:57:55.720Z,6.03
2023-05-23T07:00:26.076Z,5.80
2023-05-23T07:03:01.250Z,6.72
2023-05-23T07:05:33.373Z,6.40
2023-05-23T07:08:03.699Z,6.70
2023-05-23T07:10:35.851Z,6.63
2023-05-23T07:13:06.776Z,7.22
2023-05-23T07:15:36.437Z,6.78
2023-05-23T07:18:09.755Z,6.65
2023-05-23T07:20:45.609Z,7.25
2023-05-23T07:23:18.989Z,7.45
2023-05-23T07:26:01.127Z,7.70
2023-05-23T07:28:32.332Z,6.82
2023-05-23T07:31:02.635Z,7.15
2023-05-23T07:33:33.150Z,7.30
2023-05-23T07:36:14.843Z,6.82
2023-05-23T07:38:50.333Z,6.35
2023-05-23T07:41:19.158Z,5.70
2023-05-23T07:43:52.499Z,6.97
2023-05-23T07:46:36.588Z,6.82
2023-05-23T07:49:18.777Z,6.88
2023-05-23T07:51:49.077Z,6.82
2023-05-23T07:54:30.264Z,7.00
2023-05-23T07:57:01.717Z,7.40
2023-05-23T07:59:31.628Z,6.80
2023-05-23T08:02:02.048Z,6.18
2023-05-23T08:04:31.350Z,7.25
2023-05-23T08:07:05.623Z,7.30
2023-05-23T08:09:35.788Z,7.72
2023-05-23T08:12:04.304Z,7.05
2023-05-23T08:14:49.638Z,7.30
2023-05-23T08:17:22.010Z,7.25
2023-05-23T08:19:54.313Z,8.20
2023-05-23T08:22:29.723Z,7.57
2023-05-23T08:25:02.328Z,7.28
2023-05-23T08:27:41.390Z,6.95
2023-05-23T08:30:20.052Z,7.53
2023-05-23T08:32:50.006Z,7.35
2023-05-23T08:35:19.798Z,7.38
2023-05-23T08:37:59.873Z,7.10
2023-05-23T08:40:33.071Z,7.63
2023-05-23T08:43:05.044Z,7.38
2023-05-23T08:45:36.271Z,8.20
2023-05-23T08:48:11.892Z,7.93
2023-05-23T08:50:52.895Z,6.55
2023-05-23T08:53:30.825Z,6.25
2023-05-23T08:56:02.691Z,6.32
2023-05-23T08:58:32.114Z,5.53
2023-05-23T09:01:05.148Z,6.00
2023-05-23T09:03:45.663Z,4.57
2023-05-23T09:06:14.538Z,4.68
2023-05-23T09:08:53.143Z,4.32
2023-05-23T09:11:22.329Z,3.80
2023-05-23T09:13:51.240Z,4.03
2023-05-23T09:16:21.757Z,4.18
2023-05-23T09:18:52.825Z,3.97
2023-05-23T09:21:27.915Z,3.80
2023-05-23T09:24:01.127Z,3.17
2023-05-23T09:26:32.607Z,3.20
2023-05-23T09:29:07.919Z,3.40
2023-05-23T09:31:41.446Z,3.78
2023-05-23T09:34:12.166Z,3.80
2023-05-23T09:36:44.269Z,3.55
2023-05-23T09:39:16.586Z,3.15
2023-05-23T09:41:50.280Z,3.15
2023-05-23T09:44:38.959Z,3.20
2023-05-23T09:47:10.229Z,3.30
2023-05-23T09:49:41.685Z,3.28
2023-05-23T09:52:10.516Z,3.58
2023-05-23T09:54:50.985Z,3.42
2023-05-23T09:57:23.517Z,28.25
2023-05-23T09:59:57.335Z,52.28
2023-05-23T10:03:02.097Z,103.68
2023-05-23T10:05:37.762Z,171.57
2023-05-23T10:08:14.400Z,169.73
2023-05-23T10:11:17.064Z,185.65
2023-05-23T10:13:51.278Z,96.90
2023-05-23T10:16:24.831Z,15.27
2023-05-23T10:18:58.345Z,31.67
2023-05-23T10:21:36.204Z,15.70
2023-05-23T10:24:06.149Z,3.42
2023-05-23T10:26:34.627Z,3.42
2023-05-23T10:29:05.441Z,2.72
2023-05-23T10:31:34.475Z,2.40
2023-05-23T10:34:16.398Z,2.55
2023-05-23T10:36:53.062Z,4.30
2023-05-23T10:39:29.640Z,2.05
2023-05-23T10:42:03.065Z,2.03
2023-05-23T10:44:33.651Z,2.97
2023-05-23T10:47:04.686Z,2.50
2023-05-23T10:49:42.828Z,1.85
2023-05-23T10:52:13.108Z,2.30
2023-05-23T10:54:46.497Z,1.98
2023-05-23T10:57:18.810Z,1.25
2023-05-23T10:59:51.071Z,1.40
2023-05-23T11:02:27.613Z,1.20
2023-05-23T11:05:20.304Z,1.20
2023-05-23T11:07:49.147Z,1.23
2023-05-23T11:10:19.479Z,1.30
2023-05-23T11:12:51.136Z,1.45
2023-05-23T11:15:30.304Z,1.20
2023-05-23T11:18:00.396Z,1.23
2023-05-23T11:20:32.441Z,1.10
2023-05-23T11:23:03.952Z,1.17
2023-05-23T11:25:47.338Z,0.90
2023-05-23T11:28:20.629Z,0.90
2023-05-23T11:30:52.595Z,1.08
2023-05-23T11:33:30.501Z,1.35
2023-05-23T11:36:12.547Z,1.50
2023-05-23T11:38:42.985Z,1.45
2023-05-23T11:41:11.483Z,1.70
2023-05-23T11:43:53.416Z,1.80
2023-05-23T11:46:24.904Z,2.10
2023-05-23T11:48:55.054Z,1.85
2023-05-23T11:51:28.594Z,2.30
2023-05-23T11:54:07.004Z,2.67
2023-05-23T11:56:45.099Z,2.53
2023-05-23T11:59:16.319Z,2.88
2023-05-23T12:01:48.470Z,3.63
2023-05-23T12:04:19.414Z,4.30
2023-05-23T12:06:49.288Z,4.07
2023-05-23T12:09:18.797Z,4.13
2023-05-23T12:11:47.683Z,4.63
2023-05-23T12:14:18.176Z,4.43
2023-05-23T12:16:50.864Z,4.93
2023-05-23T12:19:22.677Z,5.35
2023-05-23T12:21:51.743Z,5.10
2023-05-23T12:24:21.595Z,5.55
2023-05-23T12:26:55.143Z,5.70
2023-05-23T12:29:40.654Z,4.97
2023-05-23T12:32:13.525Z,5.32
2023-05-23T12:34:43.860Z,4.63
2023-05-23T12:37:20.281Z,4.72
2023-05-23T12:39:49.675Z,4.93
2023-05-23T12:42:18.500Z,4.63
2023-05-23T12:44:48.700Z,4.38
2023-05-23T12:47:21.621Z,5.53
2023-05-23T12:49:50.507Z,4.32
2023-05-23T12:52:18.975Z,5.47
2023-05-23T12:54:47.961Z,4.63
2023-05-23T12:57:16.546Z,5.05
2023-05-23T12:59:45.005Z,4.55
2023-05-23T13:02:13.949Z,4.63
2023-05-23T13:04:43.991Z,5.10
2023-05-23T13:07:12.467Z,4.88
2023-05-23T13:09:41.238Z,5.00
2023-05-23T13:12:10.606Z,5.13
2023-05-23T13:14:41.708Z,4.90
2023-05-23T13:17:14.084Z,4.75
2023-05-23T13:19:52.328Z,4.80
2023-05-23T13:22:29.104Z,5.50
2023-05-23T13:24:57.623Z,6.05
2023-05-23T13:27:36.505Z,6.22
2023-05-23T13:30:05.761Z,5.85
2023-05-23T13:32:36.920Z,5.65
2023-05-23T13:35:07.577Z,6.25
2023-05-23T13:37:35.765Z,6.72
2023-05-23T13:40:05.297Z,6.15
2023-05-23T13:42:34.696Z,6.30
2023-05-23T13:45:05.076Z,6.55
2023-05-23T13:47:33.625Z,6.00
2023-05-23T13:50:02.267Z,5.97
2023-05-23T13:52:33.234Z,5.20
2023-05-23T13:55:02.733Z,5.25
2023-05-23T13:57:31.377Z,4.85
2023-05-23T14:00:00.176Z,6.07
2023-05-23T14:02:30.450Z,5.60
2023-05-23T14:05:00.803Z,5.95
2023-05-23T14:07:29.154Z,5.38
2023-05-23T14:09:59.884Z,4.88
2023-05-23T14:12:29.035Z,4.55
2023-05-23T14:14:59.094Z,4.75
2023-05-23T14:17:27.559Z,4.35
2023-05-23T14:19:56.226Z,5.38
2023-05-23T14:22:26.613Z,4.80
2023-05-23T14:24:55.318Z,4.55
2023-05-23T14:27:25.496Z,4.72
2023-05-23T14:29:56.100Z,4.47
2023-05-23T14:32:27.293Z,5.03
2023-05-23T14:34:56.099Z,4.68
2023-05-23T14:37:24.827Z,5.40
2023-05-23T14:39:54.012Z,5.18
2023-05-23T14:42:27.037Z,4.70
2023-05-23T14:45:03.478Z,5.35
2023-05-23T14:47:35.870Z,4.20
2023-05-23T14:50:08.380Z,4.13
2023-05-23T14:52:37.616Z,3.83
2023-05-23T14:55:07.214Z,4.15
2023-05-23T14:57:37.401Z,3.80
2023-05-23T15:00:06.843Z,3.78
2023-05-23T15:02:36.177Z,3.47
2023-05-23T15:05:05.264Z,3.90
2023-05-23T15:07:37.452Z,4.50
2023-05-23T15:10:06.803Z,3.90
2023-05-23T15:12:36.663Z,3.92
2023-05-23T15:15:05.740Z,4.00
2023-05-23T15:17:35.217Z,3.95
2023-05-23T15:20:05.981Z,3.75
2023-05-23T15:22:40.023Z,4.22
2023-05-23T15:25:10.027Z,4.15
2023-05-23T15:27:39.901Z,4.82
2023-05-23T15:30:10.794Z,4.53
2023-05-23T15:32:40.202Z,4.22
2023-05-23T15:35:09.658Z,3.88
2023-05-23T15:37:38.508Z,4.25
2023-05-23T15:40:07.721Z,4.07
2023-05-23T15:42:37.685Z,4.55
2023-05-23T15:45:10.691Z,4.28
2023-05-23T15:47:39.926Z,4.68
2023-05-23T15:50:11.008Z,4.30
2023-05-23T15:52:43.686Z,4.38
2023-05-23T15:55:12.304Z,3.72
2023-05-23T15:57:41.371Z,3.50
2023-05-23T16:00:14.731Z,3.60
2023-05-23T16:02:43.341Z,3.85
2023-05-23T16:05:12.064Z,4.88
2023-05-23T16:07:40.980Z,4.45
2023-05-23T16:10:10.817Z,3.83
2023-05-23T16:12:44.939Z,3.65
2023-05-23T16:15:15.611Z,3.88
2023-05-23T16:17:45.969Z,3.80
2023-05-23T16:20:16.164Z,3.80
2023-05-23T16:22:45.817Z,3.97
2023-05-23T16:25:17.472Z,4.10
2023-05-23T16:27:47.129Z,4.15
2023-05-23T16:30:17.432Z,3.90
2023-05-23T16:32:46.202Z,4.00
2023-05-23T16:35:14.735Z,3.70
2023-05-23T16:37:44.385Z,4.03
2023-05-23T16:40:13.655Z,4.00
2023-05-23T16:42:42.690Z,3.30
2023-05-23T16:45:11.417Z,3.33
2023-05-23T16:47:41.412Z,3.35
2023-05-23T16:50:10.786Z,3.83
2023-05-23T16:52:41.604Z,3.53
2023-05-23T16:55:10.250Z,3.78
2023-05-23T16:57:38.982Z,3.60
2023-05-23T17:00:10.688Z,3.70
2023-05-23T17:02:40.554Z,3.53
2023-05-23T17:05:09.967Z,3.17
2023-05-23T17:07:39.877Z,3.28
2023-05-23T17:10:10.064Z,3.50
2023-05-23T17:12:38.604Z,3.83
2023-05-23T17:15:08.555Z,4.25
2023-05-23T17:17:37.028Z,3.22
2023-05-23T17:20:08.728Z,3.10
2023-05-23T17:22:38.101Z,3.45
2023-05-23T17:25:07.592Z,2.80
2023-05-23T17:27:36.492Z,3.42
2023-05-23T17:30:06.131Z,3.35
2023-05-23T17:32:35.202Z,2.90
2023-05-23T17:35:03.971Z,3.22
2023-05-23T17:37:35.664Z,3.55
2023-05-23T17:40:06.692Z,3.08
2023-05-23T17:42:35.231Z,3.95
2023-05-23T17:45:07.737Z,3.00
2023-05-23T17:47:36.571Z,3.30
2023-05-23T17:50:06.378Z,2.92
2023-05-23T17:52:36.755Z,3.35
2023-05-23T17:55:06.437Z,3.80
2023-05-23T17:57:34.876Z,3.15
2023-05-23T18:00:03.539Z,3.67
2023-05-23T18:02:31.976Z,3.10
2023-05-23T18:05:01.390Z,3.22
2023-05-23T18:07:30.104Z,3.30
2023-05-23T18:10:00.863Z,3.20
2023-05-23T18:12:29.621Z,3.60
2023-05-23T18:14:59.207Z,3.17
2023-05-23T18:17:29.437Z,3.53
2023-05-23T18:19:57.920Z,3.25
2023-05-23T18:22:33.221Z,3.40
2023-05-23T18:25:03.874Z,3.08
2023-05-23T18:27:32.698Z,3.80
2023-05-23T18:30:01.233Z,3.88
2023-05-23T18:32:30.714Z,3.00
2023-05-23T18:34:59.119Z,2.95
2023-05-23T18:37:27.821Z,3.10
2023-05-23T18:39:58.840Z,3.65
2023-05-23T18:42:28.782Z,3.70
2023-05-23T18:44:57.438Z,3.97
2023-05-23T18:47:26.193Z,3.95
2023-05-23T18:49:54.954Z,2.92
2023-05-23T18:52:23.330Z,2.90
2023-05-23T18:54:54.006Z,3.08
2023-05-23T18:57:23.852Z,3.47
2023-05-23T18:59:53.842Z,3.10
2023-05-23T19:02:22.505Z,3.20
2023-05-23T19:04:52.819Z,3.50
2023-05-23T19:07:21.541Z,3.28
2023-05-23T19:09:49.988Z,3.10
2023-05-23T19:12:18.648Z,3.40
2023-05-23T19:14:47.161Z,3.75
2023-05-23T19:17:17.090Z,3.35
2023-05-23T19:19:48.813Z,3.30
2023-05-23T19:22:17.437Z,2.88
2023-05-23T19:24:46.420Z,3.10
2023-05-23T19:27:16.373Z,3.30
2023-05-23T19:29:45.659Z,2.75
2023-05-23T19:32:14.473Z,2.63
2023-05-23T19:34:44.541Z,2.72
2023-05-23T19:37:13.017Z,3.10
2023-05-23T19:39:45.821Z,3.38
2023-05-23T19:42:15.203Z,3.42
2023-05-23T19:44:44.816Z,3.47
2023-05-23T19:47:13.387Z,2.70
2023-05-23T19:49:43.365Z,3.42
2023-05-23T19:52:14.892Z,3.30
2023-05-23T19:54:43.607Z,3.35
2023-05-23T19:57:12.163Z,3.10
2023-05-23T19:59:43.172Z,2.75
2023-05-23T20:02:12.000Z,3.47
2023-05-23T20:04:41.067Z,2.88
2023-05-23T20:07:11.576Z,2.72
2023-05-23T20:09:40.186Z,2.95
2023-05-23T20:12:09.308Z,3.03
2023-05-23T20:14:37.955Z,2.85
2023-05-23T20:17:07.884Z,3.00
2023-05-23T20:19:36.041Z,2.97
2023-05-23T20:22:04.173Z,2.78
2023-05-23T20:24:33.700Z,2.85
2023-05-23T20:27:01.966Z,3.30
2023-05-23T20:29:30.277Z,3.03
2023-05-23T20:31:58.756Z,3.70
2023-05-23T20:34:27.437Z,3.35
2023-05-23T20:36:55.929Z,2.90
2023-05-23T20:39:24.997Z,3.28
2023-05-23T20:41:54.824Z,3.42
2023-05-23T20:44:24.847Z,3.05
2023-05-23T20:46:53.511Z,3.97
2023-05-23T20:49:24.893Z,3.03
2023-05-23T20:51:53.744Z,3.13
2023-05-23T20:54:22.478Z,3.72
2023-05-23T20:56:52.564Z,3.30
2023-05-23T20:59:22.547Z,2.47
2023-05-23T21:01:51.207Z,3.05
2023-05-23T21:04:19.887Z,3.10
2023-05-23T21:06:48.528Z,3.35
2023-05-23T21:09:17.346Z,3.88
2023-05-23T21:11:46.060Z,3.17
2023-05-23T21:14:14.787Z,3.03
2023-05-23T21:16:44.618Z,3.50
2023-05-23T21:19:13.244Z,3.08
2023-05-23T21:21:41.868Z,3.47
2023-05-23T21:24:12.591Z,3.33
2023-05-23T21:26:41.195Z,3.35
2023-05-23T21:29:10.176Z,3.10
2023-05-23T21:31:41.959Z,4.28
2023-05-23T21:34:23.160Z,2.97
2023-05-23T21:36:53.070Z,3.50
2023-05-23T21:39:21.930Z,3.20
2023-05-23T21:41:50.411Z,2.90
2023-05-23T21:44:20.218Z,3.25
2023-05-23T21:46:48.782Z,3.30
2023-05-23T21:49:18.731Z,3.25
2023-05-23T21:51:47.706Z,2.78
2023-05-23T21:54:16.195Z,2.72
2023-05-23T21:56:44.948Z,3.83
2023-05-23T21:59:13.936Z,2.95
2023-05-23T22:01:42.969Z,3.30
2023-05-23T22:04:11.521Z,4.85
2023-05-23T22:06:43.770Z,2.63
2023-05-23T22:09:12.258Z,3.22
2023-05-23T22:11:42.253Z,2.78
2023-05-23T22:14:13.215Z,2.85
2023-05-23T22:16:42.655Z,2.63
2023-05-23T22:19:12.644Z,3.30
2023-05-23T22:21:43.131Z,2.75
2023-05-23T22:24:12.131Z,2.28
2023-05-23T22:26:41.047Z,2.92
2023-05-23T22:29:10.163Z,4.05
2023-05-23T22:31:38.741Z,3.40
2023-05-23T22:34:07.254Z,3.47
2023-05-23T22:36:38.792Z,2.88
2023-05-23T22:39:09.545Z,2.70
2023-05-23T22:41:38.245Z,2.85
2023-05-23T22:44:06.600Z,4.10
2023-05-23T22:46:35.040Z,2.65
2023-05-23T22:49:03.755Z,2.70
2023-05-23T22:51:34.221Z,2.80
2023-05-23T22:54:04.235Z,2.67
2023-05-23T22:56:34.854Z,2.28
2023-05-23T22:59:03.756Z,2.67
2023-05-23T23:01:33.368Z,2.53
2023-05-23T23:04:02.128Z,2.30
2023-05-23T23:06:30.673Z,3.13
2023-05-23T23:08:59.156Z,2.10
2023-05-23T23:11:28.187Z,2.40
2023-05-23T23:14:00.202Z,2.58
2023-05-23T23:16:30.739Z,2.97
2023-05-23T23:18:59.364Z,2.45
2023-05-23T23:21:28.022Z,2.40
2023-05-23T23:23:56.746Z,3.20
2023-05-23T23:26:25.862Z,2.55
2023-05-23T23:28:54.706Z,2.50
2023-05-23T23:31:25.030Z,2.22
2023-05-23T23:33:53.516Z,2.70
2023-05-23T23:36:22.587Z,2.58
2023-05-23T23:38:51.187Z,2.50
2023-05-23T23:41:21.053Z,3.22
2023-05-23T23:43:49.481Z,1.83
2023-05-23T23:46:20.931Z,2.55
2023-05-23T23:48:53.357Z,2.50
2023-05-23T23:51:22.223Z,2.50
2023-05-23T23:53:53.354Z,3.30
2023-05-23T23:56:24.862Z,2.58
2023-05-23T23:58:54.152Z,3.35
